createdAt,value
2019-05-14T00:01:48.345Z,11.70
2019-05-14T00:04:18.369Z,11.70
2019-05-14T00:06:48.581Z,11.70
2019-05-14T00:09:18.906Z,11.60
2019-05-14T00:11:51.105Z,11.60
2019-05-14T00:14:22.100Z,11.60
2019-05-14T00:16:52.962Z,11.50
2019-05-14T00:19:23.066Z,11.50
2019-05-14T00:21:53.188Z,11.50
2019-05-14T00:24:23.388Z,11.40
2019-05-14T00:26:53.406Z,11.40
2019-05-14T00:29:25.602Z,11.40
2019-05-14T00:31:56.328Z,11.40
2019-05-14T00:34:26.444Z,11.40
2019-05-14T00:36:56.646Z,11.40
2019-05-14T00:39:27.298Z,11.40
2019-05-14T00:41:57.343Z,11.30
2019-05-14T00:44:27.330Z,11.30
2019-05-14T00:46:57.450Z,11.30
2019-05-14T00:49:27.774Z,11.20
2019-05-14T00:51:57.893Z,11.20
2019-05-14T00:54:28.012Z,11.20
2019-05-14T00:56:58.130Z,11.20
2019-05-14T00:59:29.502Z,11.20
2019-05-14T01:02:02.656Z,11.20
2019-05-14T01:04:31.814Z,11.10
2019-05-14T01:07:03.356Z,11.10
2019-05-14T01:09:33.437Z,11.10
2019-05-14T01:12:03.556Z,11.00
2019-05-14T01:14:33.880Z,11.00
2019-05-14T01:17:04.003Z,11.00
2019-05-14T01:19:34.322Z,11.00
2019-05-14T01:22:04.442Z,11.00
2019-05-14T01:24:34.563Z,10.90
2019-05-14T01:27:04.681Z,10.90
2019-05-14T01:29:34.801Z,10.90
2019-05-14T01:32:04.917Z,10.90
2019-05-14T01:34:34.871Z,10.80
2019-05-14T01:37:04.952Z,10.80
2019-05-14T01:39:35.070Z,10.80
2019-05-14T01:42:05.192Z,10.80
2019-05-14T01:44:35.309Z,10.80
2019-05-14T01:47:05.428Z,10.70
2019-05-14T01:49:35.569Z,10.70
2019-05-14T01:52:05.669Z,10.70
2019-05-14T01:54:35.786Z,10.70
2019-05-14T01:57:05.906Z,10.60
2019-05-14T01:59:36.025Z,10.60
2019-05-14T02:02:06.351Z,10.60
2019-05-14T02:04:36.675Z,10.50
2019-05-14T02:07:07.407Z,10.50
2019-05-14T02:09:37.525Z,10.50
2019-05-14T02:12:07.645Z,10.50
2019-05-14T02:14:37.765Z,10.50
2019-05-14T02:17:07.882Z,10.40
2019-05-14T02:19:38.003Z,10.40
2019-05-14T02:22:08.122Z,10.40
2019-05-14T02:24:38.242Z,10.30
2019-05-14T02:27:08.362Z,10.30
2019-05-14T02:29:41.406Z,10.30
2019-05-14T02:32:11.309Z,10.30
2019-05-14T02:34:41.585Z,10.20
2019-05-14T02:37:11.512Z,10.20
2019-05-14T02:39:41.826Z,10.20
2019-05-14T02:42:11.940Z,10.20
2019-05-14T02:44:42.060Z,10.10
2019-05-14T02:47:12.184Z,10.10
2019-05-14T02:49:42.298Z,10.10
2019-05-14T02:52:12.418Z,10.10
2019-05-14T02:54:42.541Z,10.00
2019-05-14T02:57:12.665Z,10.00
2019-05-14T02:59:42.776Z,10.00
2019-05-14T03:02:12.893Z,10.00
2019-05-14T03:04:43.219Z,10.00
2019-05-14T03:07:13.362Z,10.00
2019-05-14T03:09:43.459Z,9.90
2019-05-14T03:12:13.580Z,9.90
2019-05-14T03:14:43.920Z,9.80
2019-05-14T03:17:14.224Z,9.80
2019-05-14T03:19:44.345Z,9.80
2019-05-14T03:22:14.871Z,9.80
2019-05-14T03:24:44.993Z,9.80
2019-05-14T03:27:15.111Z,9.70
2019-05-14T03:29:45.226Z,9.70
2019-05-14T03:32:15.353Z,9.70
2019-05-14T03:34:45.469Z,9.60
2019-05-14T03:37:22.614Z,9.60
2019-05-14T03:39:49.388Z,9.60
2019-05-14T03:42:19.919Z,9.60
2019-05-14T03:44:50.311Z,9.60
2019-05-14T03:47:20.470Z,9.60
2019-05-14T03:49:50.687Z,9.60
2019-05-14T03:52:20.819Z,9.50
2019-05-14T03:54:50.836Z,9.50
2019-05-14T03:57:22.207Z,9.50
2019-05-14T03:59:52.391Z,9.50
2019-05-14T04:02:23.533Z,9.50
2019-05-14T04:04:53.656Z,9.50
2019-05-14T04:07:30.095Z,9.50
2019-05-14T04:09:59.504Z,9.50
2019-05-14T04:12:31.798Z,9.40
2019-05-14T04:15:03.986Z,9.40
2019-05-14T04:17:41.780Z,9.40
2019-05-14T04:20:09.675Z,9.40
2019-05-14T04:22:41.693Z,9.40
2019-05-14T04:25:12.224Z,9.40
2019-05-14T04:27:44.185Z,9.40
2019-05-14T04:30:19.062Z,9.30
2019-05-14T04:32:50.617Z,9.40
2019-05-14T04:35:20.480Z,9.30
2019-05-14T04:37:50.808Z,9.30
2019-05-14T04:40:21.129Z,9.30
2019-05-14T04:42:51.248Z,9.30
2019-05-14T04:45:21.364Z,9.40
2019-05-14T04:47:51.592Z,9.30
2019-05-14T04:50:25.511Z,9.30
2019-05-14T04:52:53.671Z,9.30
2019-05-14T04:55:23.790Z,9.30
2019-05-14T04:57:53.910Z,9.30
2019-05-14T05:00:24.028Z,9.30
2019-05-14T05:02:54.154Z,9.30
2019-05-14T05:05:24.272Z,9.30
2019-05-14T05:07:54.385Z,9.30
2019-05-14T05:10:24.509Z,8.50
2019-05-14T05:12:54.624Z,8.70
2019-05-14T05:15:24.741Z,8.90
2019-05-14T05:17:54.869Z,9.00
2019-05-14T05:20:25.010Z,9.10
2019-05-14T05:22:55.101Z,9.20
2019-05-14T05:25:25.220Z,9.30
2019-05-14T05:27:56.549Z,9.20
2019-05-14T05:30:29.322Z,9.30
2019-05-14T05:32:59.674Z,9.30
2019-05-14T05:35:30.110Z,9.30
2019-05-14T05:38:00.117Z,9.30
2019-05-14T05:40:30.440Z,9.30
2019-05-14T05:43:00.557Z,9.40
2019-05-14T05:45:30.675Z,9.40
2019-05-14T05:48:01.839Z,9.40
2019-05-14T05:50:32.354Z,9.40
2019-05-14T05:53:02.476Z,9.40
2019-05-14T05:55:32.586Z,9.40
2019-05-14T05:58:02.708Z,9.40
2019-05-14T06:00:39.525Z,9.40
2019-05-14T06:03:10.674Z,9.40
2019-05-14T06:05:39.648Z,9.40
2019-05-14T06:08:09.738Z,9.50
2019-05-14T06:10:40.167Z,9.50
2019-05-14T06:13:13.671Z,9.50
2019-05-14T06:15:47.903Z,9.50
2019-05-14T06:18:18.081Z,9.50
2019-05-14T06:20:45.455Z,9.60
2019-05-14T06:23:15.776Z,9.60
2019-05-14T06:25:48.875Z,9.60
2019-05-14T06:28:20.567Z,9.60
2019-05-14T06:30:49.410Z,9.60
2019-05-14T06:33:19.721Z,9.70
2019-05-14T06:35:50.061Z,9.70
2019-05-14T06:38:20.180Z,9.80
2019-05-14T06:40:50.501Z,9.80
2019-05-14T06:43:20.620Z,9.80
2019-05-14T06:45:50.945Z,9.90
2019-05-14T06:48:30.821Z,9.90
2019-05-14T06:50:52.620Z,10.00
2019-05-14T06:53:22.737Z,10.00
2019-05-14T06:55:52.854Z,10.10
2019-05-14T06:58:23.178Z,10.10
2019-05-14T07:00:53.302Z,10.10
2019-05-14T07:03:23.417Z,10.20
2019-05-14T07:05:53.544Z,10.20
2019-05-14T07:08:23.654Z,10.30
2019-05-14T07:10:53.589Z,10.30
2019-05-14T07:13:23.691Z,10.40
2019-05-14T07:15:53.814Z,10.40
2019-05-14T07:18:23.930Z,10.50
2019-05-14T07:20:54.046Z,10.50
2019-05-14T07:23:24.167Z,10.60
2019-05-14T07:25:54.285Z,10.60
2019-05-14T07:28:24.403Z,10.60
2019-05-14T07:30:54.525Z,10.70
2019-05-14T07:33:25.421Z,10.70
2019-05-14T07:35:55.787Z,10.80
2019-05-14T07:38:28.244Z,10.90
2019-05-14T07:40:58.532Z,10.90
2019-05-14T07:43:29.011Z,11.00
2019-05-14T07:45:59.136Z,11.00
2019-05-14T07:48:29.251Z,11.00
2019-05-14T07:50:59.882Z,11.10
2019-05-14T07:53:38.812Z,11.10
2019-05-14T07:56:02.474Z,11.20
2019-05-14T07:58:32.800Z,11.20
2019-05-14T08:01:03.125Z,11.30
2019-05-14T08:03:33.241Z,11.40
2019-05-14T08:06:03.569Z,11.40
2019-05-14T08:08:33.685Z,11.50
2019-05-14T08:11:04.007Z,11.50
2019-05-14T08:13:34.331Z,11.60
2019-05-14T08:16:04.452Z,11.70
2019-05-14T08:18:34.569Z,11.70
2019-05-14T08:21:04.690Z,11.80
2019-05-14T08:23:34.817Z,11.80
2019-05-14T08:26:04.932Z,11.90
2019-05-14T08:28:35.052Z,11.90
2019-05-14T08:31:05.167Z,12.00
2019-05-14T08:33:35.293Z,12.00
2019-05-14T08:36:05.405Z,12.10
2019-05-14T08:38:35.523Z,12.10
2019-05-14T08:41:08.192Z,12.10
2019-05-14T08:43:39.639Z,12.10
2019-05-14T08:46:08.953Z,12.10
2019-05-14T08:48:39.180Z,12.10
2019-05-14T08:51:09.603Z,12.20
2019-05-14T08:53:39.722Z,12.20
2019-05-14T08:56:12.249Z,12.30
2019-05-14T08:58:41.596Z,12.30
2019-05-14T09:01:11.636Z,12.30
2019-05-14T09:03:42.917Z,12.40
2019-05-14T09:06:13.185Z,12.40
2019-05-14T09:08:43.308Z,12.40
2019-05-14T09:11:13.423Z,12.40
2019-05-14T09:13:43.952Z,12.40
2019-05-14T09:16:14.074Z,12.40
2019-05-14T09:18:44.190Z,12.50
2019-05-14T09:21:14.314Z,12.50
2019-05-14T09:23:44.429Z,12.50
2019-05-14T09:26:14.549Z,12.60
2019-05-14T09:28:47.999Z,12.70
2019-05-14T09:31:19.843Z,12.60
2019-05-14T09:33:49.581Z,12.60
2019-05-14T09:36:23.893Z,12.50
2019-05-14T09:38:51.819Z,12.50
2019-05-14T09:41:22.020Z,12.60
2019-05-14T09:43:52.140Z,12.70
2019-05-14T09:46:22.258Z,12.70
2019-05-14T09:48:52.377Z,12.70
2019-05-14T09:51:22.496Z,12.70
2019-05-14T09:53:52.622Z,12.70
2019-05-14T09:56:22.649Z,12.60
2019-05-14T09:58:53.059Z,12.60
2019-05-14T10:01:23.176Z,12.60
2019-05-14T10:03:53.500Z,12.60
2019-05-14T10:06:24.040Z,12.60
2019-05-14T10:08:54.148Z,12.60
2019-05-14T10:11:24.269Z,12.60
2019-05-14T10:13:54.390Z,12.70
2019-05-14T10:16:24.923Z,12.70
2019-05-14T10:18:55.038Z,12.80
2019-05-14T10:21:25.156Z,12.80
2019-05-14T10:23:55.273Z,12.70
2019-05-14T10:26:25.241Z,12.70
2019-05-14T10:28:55.514Z,12.70
2019-05-14T10:31:25.633Z,12.70
2019-05-14T10:33:55.753Z,12.70
2019-05-14T10:36:25.871Z,12.70
2019-05-14T10:38:58.638Z,12.70
2019-05-14T10:41:29.032Z,12.70
2019-05-14T10:43:59.915Z,12.70
2019-05-14T10:46:30.037Z,12.70
2019-05-14T10:49:14.656Z,12.70
2019-05-14T10:51:31.912Z,12.90
2019-05-14T10:54:17.868Z,13.00
2019-05-14T10:56:33.790Z,13.10
2019-05-14T10:59:03.911Z,13.10
2019-05-14T11:01:34.235Z,13.10
2019-05-14T11:04:04.763Z,13.10
2019-05-14T11:06:34.879Z,13.20
2019-05-14T11:09:08.888Z,13.20
2019-05-14T11:11:38.433Z,13.20
2019-05-14T11:14:11.586Z,13.20
2019-05-14T11:16:42.100Z,13.30
2019-05-14T11:19:12.240Z,13.30
2019-05-14T11:21:42.355Z,13.30
2019-05-14T11:24:12.470Z,13.40
2019-05-14T11:26:42.595Z,13.50
2019-05-14T11:29:12.914Z,13.70
2019-05-14T11:31:43.040Z,13.70
2019-05-14T11:34:13.151Z,13.90
2019-05-14T11:36:43.281Z,13.90
2019-05-14T11:39:13.389Z,14.00
2019-05-14T11:41:43.716Z,14.00
2019-05-14T11:44:13.835Z,14.00
2019-05-14T11:46:52.139Z,14.60
2019-05-14T11:49:15.707Z,15.40
2019-05-14T11:52:00.946Z,15.90
2019-05-14T11:54:18.782Z,16.20
2019-05-14T11:56:49.961Z,16.40
2019-05-14T11:59:20.081Z,16.50
2019-05-14T12:01:50.404Z,16.50
2019-05-14T12:04:20.536Z,16.60
2019-05-14T12:06:50.647Z,16.60
2019-05-14T12:09:20.683Z,16.70
2019-05-14T12:11:50.879Z,16.90
2019-05-14T12:14:21.005Z,16.90
2019-05-14T12:16:51.131Z,16.80
2019-05-14T12:19:21.442Z,16.90
2019-05-14T12:22:05.879Z,16.90
2019-05-14T12:24:24.754Z,16.90
2019-05-14T12:26:55.086Z,16.80
2019-05-14T12:29:25.198Z,16.80
2019-05-14T12:31:55.523Z,16.90
2019-05-14T12:34:29.485Z,17.00
2019-05-14T12:36:59.444Z,16.90
2019-05-14T12:39:29.552Z,17.00
2019-05-14T12:41:59.686Z,17.10
2019-05-14T12:44:30.013Z,17.10
2019-05-14T12:47:00.123Z,17.10
2019-05-14T12:49:31.884Z,17.10
2019-05-14T12:52:17.880Z,17.10
2019-05-14T12:54:33.761Z,17.20
2019-05-14T12:57:03.872Z,16.90
2019-05-14T12:59:34.209Z,17.00
2019-05-14T13:02:04.322Z,17.00
2019-05-14T13:04:34.454Z,17.00
2019-05-14T13:07:05.178Z,17.10
2019-05-14T13:09:35.306Z,17.20
2019-05-14T13:12:10.913Z,17.20
2019-05-14T13:14:39.434Z,17.30
2019-05-14T13:17:09.344Z,17.30
2019-05-14T13:19:39.665Z,17.50
2019-05-14T13:22:15.132Z,17.40
2019-05-14T13:24:41.744Z,17.50
2019-05-14T13:27:12.065Z,17.40
2019-05-14T13:29:42.187Z,17.40
2019-05-14T13:32:12.673Z,17.40
2019-05-14T13:34:43.246Z,17.30
2019-05-14T13:37:13.363Z,17.40
2019-05-14T13:39:43.483Z,17.40
2019-05-14T13:42:13.600Z,17.40
2019-05-14T13:44:43.961Z,17.50
2019-05-14T13:47:14.044Z,17.50
2019-05-14T13:49:44.169Z,17.50
2019-05-14T13:52:14.292Z,17.50
2019-05-14T13:54:44.403Z,17.60
2019-05-14T13:57:14.525Z,17.60
2019-05-14T13:59:44.889Z,17.60
2019-05-14T14:02:14.989Z,17.50
2019-05-14T14:04:45.286Z,17.40
2019-05-14T14:07:15.408Z,17.40
2019-05-14T14:09:45.731Z,17.40
2019-05-14T14:12:15.854Z,17.40
2019-05-14T14:14:45.973Z,17.40
2019-05-14T14:17:18.236Z,17.50
2019-05-14T14:19:48.319Z,17.60
2019-05-14T14:22:19.507Z,17.60
2019-05-14T14:24:50.135Z,17.70
2019-05-14T14:27:22.401Z,17.70
2019-05-14T14:29:53.224Z,17.70
2019-05-14T14:32:23.257Z,17.60
2019-05-14T14:34:53.188Z,17.60
2019-05-14T14:37:23.491Z,17.60
2019-05-14T14:39:53.624Z,17.60
2019-05-14T14:42:23.737Z,17.60
2019-05-14T14:44:53.849Z,17.50
2019-05-14T14:47:24.174Z,17.40
2019-05-14T14:49:54.293Z,17.40
2019-05-14T14:52:25.035Z,17.50
2019-05-14T14:54:55.149Z,17.50
2019-05-14T14:57:25.272Z,17.40
2019-05-14T14:59:56.330Z,17.40
2019-05-14T15:02:28.858Z,17.40
2019-05-14T15:04:59.614Z,17.40
2019-05-14T15:07:30.371Z,17.40
2019-05-14T15:10:00.793Z,17.40
2019-05-14T15:12:30.897Z,17.40
2019-05-14T15:15:01.018Z,17.40
2019-05-14T15:17:31.346Z,17.40
2019-05-14T15:20:01.599Z,17.40
2019-05-14T15:22:31.986Z,17.30
2019-05-14T15:25:02.120Z,17.30
2019-05-14T15:27:32.324Z,17.30
2019-05-14T15:30:02.551Z,17.30
2019-05-14T15:32:32.669Z,17.20
2019-05-14T15:35:02.706Z,17.20
2019-05-14T15:37:32.635Z,17.30
2019-05-14T15:40:04.248Z,17.30
2019-05-14T15:42:34.581Z,17.20
2019-05-14T15:45:05.210Z,17.30
2019-05-14T15:47:35.179Z,17.20
2019-05-14T15:50:05.557Z,17.20
2019-05-14T15:52:35.674Z,17.20
2019-05-14T15:55:08.671Z,17.20
2019-05-14T15:57:39.767Z,17.10
2019-05-14T16:00:11.355Z,17.10
2019-05-14T16:02:41.474Z,17.10
2019-05-14T16:05:11.810Z,17.10
2019-05-14T16:07:41.915Z,17.10
2019-05-14T16:10:12.445Z,17.10
2019-05-14T16:12:42.770Z,17.10
2019-05-14T16:15:13.095Z,17.10
2019-05-14T16:17:49.648Z,17.00
2019-05-14T16:20:15.175Z,17.00
2019-05-14T16:22:45.503Z,17.00
2019-05-14T16:25:15.837Z,16.90
2019-05-14T16:27:46.165Z,16.90
2019-05-14T16:30:19.164Z,16.90
2019-05-14T16:32:48.656Z,16.90
2019-05-14T16:35:21.229Z,16.90
2019-05-14T16:37:50.513Z,16.80
2019-05-14T16:40:20.864Z,16.80
2019-05-14T16:42:50.960Z,16.80
2019-05-14T16:45:21.075Z,16.70
2019-05-14T16:47:51.195Z,16.70
2019-05-14T16:50:21.315Z,16.70
2019-05-14T16:52:51.638Z,16.60
2019-05-14T16:55:26.894Z,16.60
2019-05-14T16:57:53.310Z,16.60
2019-05-14T17:00:23.430Z,16.60
2019-05-14T17:02:53.758Z,16.50
2019-05-14T17:05:23.876Z,16.50
2019-05-14T17:07:53.997Z,16.50
2019-05-14T17:10:25.343Z,16.50
2019-05-14T17:12:57.717Z,16.40
2019-05-14T17:15:28.833Z,16.40
2019-05-14T17:17:59.658Z,16.40
2019-05-14T17:20:30.176Z,16.40
2019-05-14T17:23:00.445Z,16.30
2019-05-14T17:25:30.677Z,16.30
2019-05-14T17:28:00.933Z,16.30
2019-05-14T17:30:31.008Z,16.20
2019-05-14T17:33:01.336Z,16.20
2019-05-14T17:35:31.449Z,16.20
2019-05-14T17:38:02.062Z,16.20
2019-05-14T17:40:32.095Z,16.10
2019-05-14T17:43:02.421Z,16.10
2019-05-14T17:45:32.539Z,16.10
2019-05-14T17:48:03.070Z,16.00
2019-05-14T17:50:33.397Z,16.00
2019-05-14T17:53:03.511Z,16.00
2019-05-14T17:55:46.393Z,15.90
2019-05-14T17:58:05.635Z,15.90
2019-05-14T18:00:38.058Z,15.80
2019-05-14T18:03:08.690Z,15.80
2019-05-14T18:05:38.819Z,15.80
2019-05-14T18:08:09.295Z,15.80
2019-05-14T18:10:39.671Z,15.80
2019-05-14T18:13:09.995Z,15.70
2019-05-14T18:15:40.115Z,15.70
2019-05-14T18:18:10.642Z,15.70
2019-05-14T18:20:40.966Z,15.70
2019-05-14T18:23:11.862Z,15.60
2019-05-14T18:25:42.231Z,15.60
2019-05-14T18:28:12.348Z,15.60
2019-05-14T18:30:42.677Z,15.60
2019-05-14T18:33:12.793Z,15.50
2019-05-14T18:35:46.526Z,15.50
2019-05-14T18:38:14.674Z,15.50
2019-05-14T18:40:44.996Z,15.50
2019-05-14T18:43:15.111Z,15.40
2019-05-14T18:45:45.242Z,15.40
2019-05-14T18:48:15.560Z,15.40
2019-05-14T18:50:48.301Z,15.40
2019-05-14T18:53:19.103Z,15.30
2019-05-14T18:55:49.393Z,15.30
2019-05-14T18:58:19.673Z,15.30
2019-05-14T19:00:50.043Z,15.20
2019-05-14T19:03:20.365Z,15.20
2019-05-14T19:05:50.575Z,15.20
2019-05-14T19:08:20.808Z,15.20
2019-05-14T19:10:53.062Z,15.10
2019-05-14T19:13:23.659Z,15.10
2019-05-14T19:15:53.845Z,15.10
2019-05-14T19:18:23.948Z,15.10
2019-05-14T19:20:54.274Z,15.00
2019-05-14T19:23:24.397Z,15.00
2019-05-14T19:25:54.511Z,15.00
2019-05-14T19:28:24.630Z,15.00
2019-05-14T19:30:54.856Z,14.90
2019-05-14T19:33:24.931Z,14.90
2019-05-14T19:35:55.191Z,14.90
2019-05-14T19:38:25.316Z,14.80
2019-05-14T19:40:55.639Z,14.80
2019-05-14T19:43:25.754Z,14.80
2019-05-14T19:45:55.872Z,14.70
2019-05-14T19:48:26.200Z,14.70
2019-05-14T19:50:58.355Z,14.70
2019-05-14T19:53:28.419Z,14.70
2019-05-14T19:55:59.341Z,14.60
2019-05-14T19:58:29.756Z,14.60
2019-05-14T20:01:00.684Z,14.60
2019-05-14T20:03:30.804Z,14.50
2019-05-14T20:06:00.924Z,14.50
2019-05-14T20:08:31.264Z,14.50
2019-05-14T20:11:01.366Z,14.40
2019-05-14T20:13:31.485Z,14.40
2019-05-14T20:16:01.608Z,14.40
2019-05-14T20:18:31.929Z,14.40
2019-05-14T20:21:02.048Z,14.30
2019-05-14T20:23:32.165Z,14.30
2019-05-14T20:26:02.492Z,14.30
2019-05-14T20:28:33.427Z,14.20
2019-05-14T20:31:03.755Z,14.20
2019-05-14T20:33:34.084Z,14.20
2019-05-14T20:36:04.196Z,14.20
2019-05-14T20:38:34.317Z,14.20
2019-05-14T20:41:04.434Z,14.10
2019-05-14T20:43:34.551Z,14.10
2019-05-14T20:46:04.674Z,14.10
2019-05-14T20:48:34.792Z,14.10
2019-05-14T20:51:04.909Z,14.00
2019-05-14T20:53:35.031Z,14.00
2019-05-14T20:56:05.367Z,14.00
2019-05-14T20:58:35.684Z,13.90
2019-05-14T21:01:05.811Z,13.90
2019-05-14T21:03:35.917Z,13.90
2019-05-14T21:06:06.240Z,13.80
2019-05-14T21:08:37.986Z,13.80
2019-05-14T21:11:08.269Z,13.80
2019-05-14T21:13:39.471Z,13.80
2019-05-14T21:16:10.855Z,13.80
2019-05-14T21:18:44.004Z,13.80
2019-05-14T21:21:14.329Z,13.70
2019-05-14T21:23:44.453Z,13.70
2019-05-14T21:26:14.573Z,13.60
2019-05-14T21:28:44.891Z,13.60
2019-05-14T21:31:15.214Z,13.60
2019-05-14T21:33:45.335Z,13.50
2019-05-14T21:36:15.453Z,13.50
2019-05-14T21:38:45.572Z,13.50
2019-05-14T21:41:19.967Z,13.50
2019-05-14T21:43:49.272Z,13.40
2019-05-14T21:46:19.365Z,13.40
2019-05-14T21:48:49.940Z,13.30
2019-05-14T21:51:20.060Z,13.20
2019-05-14T21:53:50.601Z,13.20
2019-05-14T21:56:21.780Z,13.20
2019-05-14T21:58:52.258Z,13.20
2019-05-14T22:01:22.542Z,13.20
2019-05-14T22:03:53.316Z,13.10
2019-05-14T22:06:23.398Z,13.10
2019-05-14T22:08:53.504Z,13.10
2019-05-14T22:11:23.880Z,13.10
2019-05-14T22:13:53.999Z,13.10
2019-05-14T22:16:24.117Z,13.00
2019-05-14T22:18:54.448Z,13.00
2019-05-14T22:21:24.563Z,12.90
2019-05-14T22:23:54.884Z,12.90
2019-05-14T22:26:25.008Z,12.90
2019-05-14T22:28:55.123Z,12.90
2019-05-14T22:31:25.242Z,12.80
2019-05-14T22:33:55.363Z,12.80
2019-05-14T22:36:25.480Z,12.80
2019-05-14T22:38:57.765Z,12.80
2019-05-14T22:41:29.084Z,12.70
2019-05-14T22:44:00.021Z,12.70
2019-05-14T22:46:30.871Z,12.70
2019-05-14T22:49:00.991Z,12.60
2019-05-14T22:51:33.174Z,12.60
2019-05-14T22:54:03.076Z,12.60
2019-05-14T22:56:33.192Z,12.50
2019-05-14T22:59:03.311Z,12.50
2019-05-14T23:01:33.454Z,12.50
2019-05-14T23:04:03.754Z,12.50
2019-05-14T23:06:33.872Z,12.40
2019-05-14T23:09:05.220Z,12.40
2019-05-14T23:11:35.342Z,12.40
2019-05-14T23:14:05.460Z,12.40
2019-05-14T23:16:39.260Z,12.30
2019-05-14T23:19:07.985Z,12.30
2019-05-14T23:21:39.034Z,12.30
2019-05-14T23:24:09.621Z,12.20
2019-05-14T23:26:39.744Z,12.20
2019-05-14T23:29:09.861Z,12.20
2019-05-14T23:31:39.979Z,12.20
2019-05-14T23:34:10.306Z,12.10
2019-05-14T23:36:40.423Z,12.10
2019-05-14T23:39:10.747Z,12.10
2019-05-14T23:41:41.073Z,12.00
2019-05-14T23:44:11.187Z,12.00
2019-05-14T23:46:41.322Z,12.00
2019-05-14T23:49:11.637Z,12.00
2019-05-14T23:51:41.685Z,12.00
2019-05-14T23:54:11.872Z,11.90
2019-05-14T23:56:41.990Z,11.90
2019-05-14T23:59:12.113Z,11.90
